createdAt,value
2023-03-15T00:01:22.637Z,5.80
2023-03-15T00:03:49.408Z,5.10
2023-03-15T00:06:16.392Z,5.30
2023-03-15T00:08:46.926Z,5.30
2023-03-15T00:11:15.137Z,5.10
2023-03-15T00:13:43.488Z,5.10
2023-03-15T00:16:10.542Z,5.10
2023-03-15T00:18:46.511Z,4.30
2023-03-15T00:21:13.837Z,5.30
2023-03-15T00:23:40.653Z,5.10
2023-03-15T00:26:07.528Z,5.80
2023-03-15T00:28:36.111Z,4.90
2023-03-15T00:31:19.106Z,5.70
2023-03-15T00:33:46.971Z,4.80
2023-03-15T00:36:15.086Z,5.30
2023-03-15T00:38:43.667Z,4.60
2023-03-15T00:41:12.369Z,5.40
2023-03-15T00:43:43.545Z,5.10
2023-03-15T00:46:11.261Z,5.40
2023-03-15T00:48:38.216Z,5.30
2023-03-15T00:53:51.772Z,5.60
2023-03-15T00:56:24.819Z,5.10
2023-03-15T00:58:53.484Z,5.40
2023-03-15T01:01:23.676Z,5.00
2023-03-15T01:03:52.260Z,5.30
2023-03-15T01:06:25.016Z,4.50
2023-03-15T01:08:55.939Z,5.20
2023-03-15T01:11:26.312Z,4.60
2023-03-15T01:13:55.921Z,6.20
2023-03-15T01:16:27.835Z,4.90
2023-03-15T01:18:57.194Z,5.00
2023-03-15T01:21:27.525Z,5.70
2023-03-15T01:23:56.400Z,5.80
2023-03-15T01:26:24.684Z,5.30
2023-03-15T01:28:53.473Z,5.20
2023-03-15T01:31:26.500Z,4.90
2023-03-15T01:33:55.141Z,5.40
2023-03-15T01:36:23.452Z,5.60
2023-03-15T01:38:53.663Z,5.40
2023-03-15T01:41:27.489Z,4.90
2023-03-15T01:43:55.898Z,5.00
2023-03-15T01:46:34.982Z,5.70
2023-03-15T01:49:29.470Z,5.30
2023-03-15T01:52:01.830Z,5.00
2023-03-15T01:54:38.708Z,4.60
2023-03-15T01:57:09.037Z,4.30
2023-03-15T01:59:41.098Z,4.80
2023-03-15T02:02:09.408Z,5.20
2023-03-15T02:04:42.072Z,5.30
2023-03-15T02:07:11.064Z,4.50
2023-03-15T02:10:09.149Z,5.30
2023-03-15T02:12:42.292Z,4.70
2023-03-15T02:15:11.832Z,5.60
2023-03-15T02:17:43.589Z,5.30
2023-03-15T02:20:27.741Z,5.50
2023-03-15T02:23:04.272Z,5.70
2023-03-15T02:25:44.777Z,6.20
2023-03-15T02:28:14.919Z,5.40
2023-03-15T02:30:44.131Z,5.70
2023-03-15T02:33:46.751Z,5.20
2023-03-15T02:36:20.107Z,5.40
2023-03-15T02:38:49.268Z,6.10
2023-03-15T02:41:35.153Z,5.30
2023-03-15T02:44:07.545Z,5.60
2023-03-15T02:46:35.928Z,5.50
2023-03-15T02:49:05.136Z,5.50
2023-03-15T02:51:34.120Z,5.60
2023-03-15T02:54:02.498Z,5.80
2023-03-15T02:56:35.101Z,5.60
2023-03-15T02:59:03.440Z,5.90
2023-03-15T03:01:31.874Z,5.50
2023-03-15T03:04:01.039Z,5.60
2023-03-15T03:06:29.966Z,6.10
2023-03-15T03:09:04.501Z,5.70
2023-03-15T03:11:33.394Z,6.30
2023-03-15T03:14:02.529Z,6.40
2023-03-15T03:16:32.413Z,6.00
2023-03-15T03:19:01.352Z,6.50
2023-03-15T03:21:35.255Z,6.50
2023-03-15T03:24:03.676Z,6.10
2023-03-15T03:26:32.880Z,6.30
2023-03-15T03:29:07.154Z,5.90
2023-03-15T03:31:35.834Z,5.10
2023-03-15T03:34:15.628Z,5.90
2023-03-15T03:36:45.424Z,5.90
2023-03-15T03:39:15.843Z,5.60
2023-03-15T03:41:44.823Z,6.00
2023-03-15T03:44:13.841Z,6.00
2023-03-15T03:46:45.698Z,5.40
2023-03-15T03:49:14.918Z,5.90
2023-03-15T03:51:43.160Z,5.50
2023-03-15T03:54:11.339Z,5.40
2023-03-15T03:56:40.338Z,5.80
2023-03-15T03:59:08.821Z,5.90
2023-03-15T04:01:51.370Z,5.30
2023-03-15T04:04:19.540Z,5.40
2023-03-15T04:06:48.081Z,5.80
2023-03-15T04:09:19.349Z,5.00
2023-03-15T04:11:52.648Z,5.20
2023-03-15T04:14:21.910Z,5.20
2023-03-15T04:16:51.743Z,6.10
2023-03-15T04:19:23.404Z,5.60
2023-03-15T04:21:52.702Z,5.40
2023-03-15T04:24:46.550Z,5.10
2023-03-15T04:27:26.860Z,4.90
2023-03-15T04:30:05.886Z,4.90
2023-03-15T04:32:50.486Z,5.10
2023-03-15T04:35:44.823Z,5.10
2023-03-15T04:38:32.768Z,4.50
2023-03-15T04:41:19.474Z,5.20
2023-03-15T04:44:08.024Z,5.60
2023-03-15T04:46:45.291Z,4.90
2023-03-15T04:49:23.865Z,4.40
2023-03-15T04:52:00.882Z,4.50
2023-03-15T04:54:54.904Z,5.20
2023-03-15T04:57:37.408Z,4.90
2023-03-15T05:00:13.161Z,4.70
2023-03-15T05:03:03.562Z,3.90
2023-03-15T05:05:54.716Z,5.20
2023-03-15T05:08:59.468Z,4.70
2023-03-15T05:11:53.919Z,4.40
2023-03-15T05:14:45.772Z,4.90
2023-03-15T05:17:48.336Z,5.40
2023-03-15T05:20:36.768Z,5.20
2023-03-15T05:23:18.600Z,4.50
2023-03-15T05:26:05.631Z,5.10
2023-03-15T05:28:45.450Z,6.00
2023-03-15T05:31:52.741Z,4.70
2023-03-15T05:34:39.118Z,5.20
2023-03-15T05:37:24.006Z,5.90
2023-03-15T05:40:25.555Z,5.10
2023-03-15T05:43:14.166Z,4.70
2023-03-15T05:46:16.001Z,6.50
2023-03-15T05:49:04.333Z,5.40
2023-03-15T05:51:55.753Z,5.50
2023-03-15T05:54:44.285Z,5.90
2023-03-15T05:57:34.270Z,6.00
2023-03-15T06:00:22.109Z,6.00
2023-03-15T06:02:50.898Z,6.50
2023-03-15T06:05:30.659Z,6.00
2023-03-15T06:08:01.398Z,5.90
2023-03-15T06:10:32.216Z,6.70
2023-03-15T06:13:01.690Z,6.50
2023-03-15T06:15:30.134Z,5.90
2023-03-15T06:17:59.201Z,6.80
2023-03-15T06:20:27.844Z,5.90
2023-03-15T06:22:56.539Z,6.60
2023-03-15T06:25:33.043Z,5.90
2023-03-15T06:28:01.424Z,5.50
2023-03-15T06:30:35.492Z,5.60
2023-03-15T06:33:04.417Z,5.60
2023-03-15T06:35:33.452Z,5.70
2023-03-15T06:38:02.223Z,5.60
2023-03-15T06:40:31.737Z,5.70
2023-03-15T06:43:06.862Z,5.80
2023-03-15T06:45:38.108Z,6.70
2023-03-15T06:48:06.895Z,7.60
2023-03-15T06:50:46.393Z,6.70
2023-03-15T06:53:17.179Z,5.80
2023-03-15T06:55:47.606Z,6.20
2023-03-15T06:58:16.699Z,6.80
2023-03-15T07:00:45.098Z,6.30
2023-03-15T07:03:13.575Z,9.60
2023-03-15T07:05:41.842Z,7.30
2023-03-15T07:08:11.457Z,8.00
2023-03-15T07:10:41.093Z,6.50
2023-03-15T07:13:10.363Z,7.20
2023-03-15T07:15:40.319Z,5.90
2023-03-15T07:18:08.654Z,8.00
2023-03-15T07:20:37.783Z,9.60
2023-03-15T07:23:07.173Z,7.40
2023-03-15T07:25:52.136Z,6.20
2023-03-15T07:28:31.166Z,6.20
2023-03-15T07:31:01.923Z,6.20
2023-03-15T07:33:31.241Z,6.00
2023-03-15T07:35:59.573Z,6.10
2023-03-15T07:38:31.085Z,5.90
2023-03-15T07:41:04.177Z,5.80
2023-03-15T07:43:32.679Z,5.10
2023-03-15T07:46:21.191Z,6.20
2023-03-15T07:48:51.757Z,5.90
2023-03-15T07:51:20.118Z,5.80
2023-03-15T07:53:51.617Z,6.20
2023-03-15T07:56:19.892Z,6.30
2023-03-15T07:58:48.032Z,5.90
2023-03-15T08:01:17.413Z,5.80
2023-03-15T08:03:46.071Z,5.90
2023-03-15T08:06:17.916Z,5.10
2023-03-15T08:08:50.242Z,6.20
2023-03-15T08:11:18.311Z,5.80
2023-03-15T08:13:52.253Z,6.00
2023-03-15T08:16:20.345Z,5.80
2023-03-15T08:18:51.509Z,6.90
2023-03-15T08:21:19.699Z,6.30
2023-03-15T08:23:47.964Z,6.80
2023-03-15T08:26:16.800Z,6.40
2023-03-15T08:28:44.832Z,5.70
2023-03-15T08:31:14.085Z,5.70
2023-03-15T08:33:42.238Z,6.20
2023-03-15T08:36:12.428Z,6.00
2023-03-15T08:38:42.193Z,5.40
2023-03-15T08:41:11.063Z,5.40
2023-03-15T08:43:39.157Z,8.90
2023-03-15T08:46:07.979Z,14.00
2023-03-15T08:48:37.096Z,7.00
2023-03-15T08:51:05.924Z,5.00
2023-03-15T08:53:34.201Z,4.50
2023-03-15T08:56:02.224Z,5.80
2023-03-15T08:58:33.005Z,5.60
2023-03-15T09:01:01.162Z,4.90
2023-03-15T09:03:29.947Z,4.70
2023-03-15T09:05:58.694Z,4.60
2023-03-15T09:08:27.021Z,4.40
2023-03-15T09:10:56.989Z,5.00
2023-03-15T09:13:25.955Z,4.80
2023-03-15T09:16:00.512Z,4.50
2023-03-15T09:18:30.377Z,5.00
2023-03-15T09:20:58.465Z,4.10
2023-03-15T09:23:26.717Z,5.80
2023-03-15T09:25:55.217Z,4.80
2023-03-15T09:28:25.539Z,4.90
2023-03-15T09:30:54.782Z,4.90
2023-03-15T09:33:27.348Z,4.90
2023-03-15T09:36:03.529Z,5.50
2023-03-15T09:38:38.429Z,6.70
2023-03-15T09:41:06.633Z,6.70
2023-03-15T09:43:52.079Z,5.90
2023-03-15T09:46:23.035Z,6.00
2023-03-15T09:49:32.424Z,5.80
2023-03-15T09:52:25.919Z,6.00
2023-03-15T09:55:31.662Z,5.30
2023-03-15T09:58:02.101Z,5.90
2023-03-15T10:00:44.581Z,5.70
2023-03-15T10:03:35.993Z,5.70
2023-03-15T10:06:12.565Z,6.40
2023-03-15T10:08:40.914Z,6.50
2023-03-15T10:11:15.848Z,5.70
2023-03-15T10:13:55.974Z,6.10
2023-03-15T10:16:39.536Z,5.30
2023-03-15T10:19:23.177Z,6.10
2023-03-15T10:21:53.565Z,6.30
2023-03-15T10:24:41.071Z,6.10
2023-03-15T10:27:32.432Z,5.70
2023-03-15T10:30:00.866Z,5.30
2023-03-15T10:32:31.650Z,5.70
2023-03-15T10:35:00.359Z,5.00
2023-03-15T10:37:30.146Z,5.60
2023-03-15T10:39:59.100Z,5.50
2023-03-15T10:42:31.760Z,5.00
2023-03-15T10:45:29.606Z,4.70
2023-03-15T10:48:00.721Z,5.50
2023-03-15T10:50:34.432Z,5.40
2023-03-15T10:53:02.749Z,6.20
2023-03-15T10:55:36.944Z,13.60
2023-03-15T11:01:40.705Z,11.40
2023-03-15T11:04:23.144Z,10.50
2023-03-15T11:07:04.176Z,5.90
2023-03-15T11:09:54.652Z,4.10
2023-03-15T11:12:28.432Z,5.80
2023-03-15T11:15:05.995Z,4.80
2023-03-15T11:17:37.224Z,5.30
2023-03-15T11:20:26.107Z,5.50
2023-03-15T11:22:57.878Z,4.70
2023-03-15T11:25:31.504Z,4.80
2023-03-15T11:27:59.612Z,4.80
2023-03-15T11:30:29.684Z,4.20
2023-03-15T11:33:06.063Z,5.10
2023-03-15T11:35:38.930Z,4.50
2023-03-15T11:38:15.554Z,5.40
2023-03-15T11:40:47.486Z,5.20
2023-03-15T11:43:30.054Z,4.90
2023-03-15T11:45:59.141Z,5.80
2023-03-15T11:48:55.245Z,5.30
2023-03-15T11:51:23.380Z,5.10
2023-03-15T11:54:14.002Z,4.90
2023-03-15T11:56:56.388Z,5.30
2023-03-15T11:59:32.714Z,5.20
2023-03-15T12:02:10.914Z,5.30
2023-03-15T12:04:39.063Z,5.10
2023-03-15T12:07:25.868Z,5.00
2023-03-15T12:10:18.489Z,5.40
2023-03-15T12:12:58.128Z,4.30
2023-03-15T12:15:27.283Z,4.80
2023-03-15T12:18:00.157Z,5.20
2023-03-15T12:20:38.226Z,5.10
2023-03-15T12:23:11.973Z,4.80
2023-03-15T12:25:55.244Z,4.30
2023-03-15T12:28:28.963Z,4.50
2023-03-15T12:30:59.554Z,5.40
2023-03-15T12:33:28.545Z,5.30
2023-03-15T12:36:08.409Z,4.10
2023-03-15T12:38:38.350Z,4.80
2023-03-15T12:41:43.738Z,5.10
2023-03-15T12:44:39.001Z,5.20
2023-03-15T12:47:13.811Z,5.20
2023-03-15T12:49:43.326Z,5.30
2023-03-15T12:52:11.562Z,5.50
2023-03-15T12:55:05.987Z,5.70
2023-03-15T12:57:39.445Z,5.60
2023-03-15T13:00:12.912Z,4.60
2023-03-15T13:03:05.556Z,4.80
2023-03-15T13:06:03.842Z,5.30
2023-03-15T13:08:40.384Z,5.00
2023-03-15T13:12:26.285Z,4.20
2023-03-15T13:15:03.540Z,5.10
2023-03-15T13:17:56.611Z,4.50
2023-03-15T13:21:06.210Z,5.20
2023-03-15T13:23:35.055Z,5.00
2023-03-15T13:26:29.947Z,4.30
2023-03-15T13:29:01.917Z,4.70
2023-03-15T13:31:31.584Z,4.60
2023-03-15T13:34:14.148Z,4.80
2023-03-15T13:36:47.778Z,5.30
2023-03-15T13:39:23.701Z,5.00
2023-03-15T13:41:59.252Z,5.00
2023-03-15T13:44:28.268Z,5.30
2023-03-15T13:46:56.804Z,5.40
2023-03-15T13:49:25.725Z,5.10
2023-03-15T13:51:53.914Z,5.30
2023-03-15T13:54:27.798Z,4.80
2023-03-15T13:56:55.978Z,4.50
2023-03-15T13:59:27.776Z,4.60
2023-03-15T14:01:56.200Z,5.10
2023-03-15T14:07:26.364Z,5.60
2023-03-15T14:10:23.423Z,5.50
2023-03-15T14:12:51.796Z,5.30
2023-03-15T14:15:41.849Z,6.80
2023-03-15T14:18:10.071Z,5.70
2023-03-15T14:20:46.239Z,5.10
2023-03-15T14:23:16.464Z,5.50
2023-03-15T14:25:51.236Z,5.70
2023-03-15T14:28:20.633Z,5.10
2023-03-15T14:30:56.469Z,5.80
2023-03-15T14:33:28.918Z,5.70
2023-03-15T14:36:05.396Z,5.50
2023-03-15T14:38:39.216Z,4.90
2023-03-15T14:41:33.272Z,5.00
2023-03-15T14:44:04.832Z,4.60
2023-03-15T14:46:33.517Z,5.20
2023-03-15T14:49:03.362Z,4.70
2023-03-15T14:51:33.556Z,4.80
2023-03-15T14:54:01.831Z,4.80
2023-03-15T14:56:30.368Z,4.00
2023-03-15T14:58:59.207Z,4.60
2023-03-15T15:01:29.260Z,5.70
2023-03-15T15:03:59.934Z,5.40
2023-03-15T15:06:28.872Z,5.00
2023-03-15T15:08:58.882Z,5.20
2023-03-15T15:11:27.280Z,5.30
2023-03-15T15:13:56.870Z,7.00
2023-03-15T15:16:25.791Z,8.00
2023-03-15T15:18:54.649Z,9.10
2023-03-15T15:24:05.021Z,8.30
2023-03-15T15:26:33.915Z,8.30
2023-03-15T15:29:03.167Z,7.00
2023-03-15T15:31:35.439Z,7.30
2023-03-15T15:34:04.156Z,8.10
2023-03-15T15:36:35.570Z,7.00
2023-03-15T15:39:07.234Z,7.70
2023-03-15T15:41:35.708Z,7.80
2023-03-15T15:44:15.747Z,7.70
2023-03-15T15:46:44.493Z,7.90
2023-03-15T15:49:13.298Z,7.60
2023-03-15T15:51:49.958Z,7.60
2023-03-15T15:54:25.564Z,8.60
2023-03-15T15:56:57.848Z,8.30
2023-03-15T15:59:28.120Z,8.10
2023-03-15T16:02:01.057Z,8.30
2023-03-15T16:04:30.552Z,7.80
2023-03-15T16:07:01.844Z,8.50
2023-03-15T16:09:31.947Z,8.00
2023-03-15T16:12:03.124Z,7.80
2023-03-15T16:14:33.012Z,8.60
2023-03-15T16:17:01.535Z,9.10
2023-03-15T16:19:31.482Z,9.30
2023-03-15T16:21:59.937Z,9.00
2023-03-15T16:24:31.280Z,8.80
2023-03-15T16:27:03.955Z,8.90
2023-03-15T16:29:40.421Z,9.40
2023-03-15T16:32:22.349Z,9.20
2023-03-15T16:34:55.199Z,9.50
2023-03-15T16:37:25.328Z,9.30
2023-03-15T16:39:55.951Z,9.70
2023-03-15T16:42:25.774Z,10.10
2023-03-15T16:44:54.872Z,10.50
2023-03-15T16:47:23.097Z,10.20
2023-03-15T16:49:51.530Z,9.90
2023-03-15T16:52:19.811Z,11.20
2023-03-15T16:54:48.965Z,11.10
2023-03-15T16:57:22.003Z,11.80
2023-03-15T16:59:51.005Z,11.10
2023-03-15T17:02:21.550Z,10.60
2023-03-15T17:04:49.841Z,10.40
2023-03-15T17:07:18.274Z,10.10
2023-03-15T17:09:47.506Z,9.50
2023-03-15T17:12:33.835Z,9.60
2023-03-15T17:15:02.492Z,9.20
2023-03-15T17:17:36.197Z,9.80
2023-03-15T17:20:10.497Z,11.20
2023-03-15T17:22:43.093Z,9.70
2023-03-15T17:25:11.861Z,10.10
2023-03-15T17:27:42.010Z,11.10
2023-03-15T17:30:30.223Z,11.80
2023-03-15T17:32:59.182Z,12.50
2023-03-15T17:35:29.687Z,12.10
2023-03-15T17:37:58.027Z,12.60
2023-03-15T17:40:29.879Z,12.40
2023-03-15T17:43:00.124Z,12.10
2023-03-15T17:45:31.061Z,12.90
2023-03-15T17:48:00.775Z,13.00
2023-03-15T17:50:31.062Z,13.50
2023-03-15T17:53:05.146Z,14.00
2023-03-15T17:55:36.453Z,12.70
2023-03-15T17:58:10.771Z,14.30
2023-03-15T18:00:39.576Z,14.20
2023-03-15T18:03:09.597Z,13.80
2023-03-15T18:05:38.269Z,14.60
2023-03-15T18:08:08.292Z,15.30
2023-03-15T18:10:38.620Z,15.20
2023-03-15T18:13:07.533Z,15.70
2023-03-15T18:15:37.765Z,15.90
2023-03-15T18:18:08.385Z,17.50
2023-03-15T18:20:37.257Z,16.50
2023-03-15T18:23:07.383Z,16.20
2023-03-15T18:25:36.151Z,16.00
2023-03-15T18:28:04.917Z,17.30
2023-03-15T18:30:33.849Z,15.40
2023-03-15T18:33:04.093Z,16.60
2023-03-15T18:35:33.874Z,17.90
2023-03-15T18:38:04.191Z,16.60
2023-03-15T18:40:33.519Z,18.30
2023-03-15T18:43:02.404Z,17.40
2023-03-15T18:45:35.367Z,18.40
2023-03-15T18:48:04.951Z,20.40
2023-03-15T18:50:33.827Z,20.30
2023-03-15T18:53:02.833Z,20.40
2023-03-15T18:55:34.612Z,19.10
2023-03-15T18:58:03.235Z,18.50
2023-03-15T19:00:36.087Z,19.20
2023-03-15T19:03:05.790Z,18.50
2023-03-15T19:05:36.357Z,20.40
2023-03-15T19:08:05.563Z,19.40
2023-03-15T19:10:33.897Z,18.40
2023-03-15T19:13:04.380Z,19.20
2023-03-15T19:15:33.781Z,18.30
2023-03-15T19:18:02.265Z,18.60
2023-03-15T19:20:32.268Z,18.50
2023-03-15T19:23:00.941Z,18.40
2023-03-15T19:25:29.830Z,17.20
2023-03-15T19:35:43.140Z,17.90
2023-03-15T19:38:11.819Z,15.80
2023-03-15T19:40:40.717Z,16.60
2023-03-15T19:43:10.301Z,17.80
2023-03-15T19:45:38.605Z,17.80
2023-03-15T19:48:07.423Z,17.90
2023-03-15T19:50:35.983Z,17.80
2023-03-15T19:53:11.865Z,17.10
2023-03-15T19:55:40.252Z,18.00
2023-03-15T19:58:08.488Z,17.20
2023-03-15T20:00:37.386Z,17.80
2023-03-15T20:03:05.587Z,16.60
2023-03-15T20:05:38.554Z,17.90
2023-03-15T20:08:08.686Z,17.90
2023-03-15T20:10:36.999Z,19.20
2023-03-15T20:13:05.222Z,19.00
2023-03-15T20:15:33.649Z,18.60
2023-03-15T20:18:02.651Z,17.60
2023-03-15T20:20:31.082Z,18.10
2023-03-15T20:22:59.493Z,18.20
2023-03-15T20:25:34.712Z,17.90
2023-03-15T20:28:04.431Z,17.00
2023-03-15T20:30:32.693Z,17.20
2023-03-15T20:33:01.381Z,18.70
2023-03-15T20:35:29.865Z,17.70
2023-03-15T20:38:06.946Z,18.30
2023-03-15T20:40:38.834Z,18.80
2023-03-15T20:43:12.482Z,31.40
2023-03-15T20:45:41.103Z,31.80
2023-03-15T20:48:09.218Z,37.90
2023-03-15T20:50:39.467Z,35.30
2023-03-15T20:53:08.594Z,27.40
2023-03-15T20:55:39.549Z,21.60
2023-03-15T20:58:07.811Z,23.10
2023-03-15T21:00:37.491Z,22.40
2023-03-15T21:03:05.695Z,22.50
2023-03-15T21:05:34.379Z,21.90
2023-03-15T21:08:02.512Z,22.80
2023-03-15T21:10:31.875Z,20.50
2023-03-15T21:13:01.368Z,22.70
2023-03-15T21:15:30.893Z,20.50
2023-03-15T21:17:59.152Z,19.80
2023-03-15T21:20:27.286Z,21.70
2023-03-15T21:23:02.052Z,21.00
2023-03-15T21:25:30.638Z,20.20
2023-03-15T21:27:59.485Z,21.20
2023-03-15T21:30:28.768Z,22.70
2023-03-15T21:32:56.913Z,23.50
2023-03-15T21:35:28.478Z,20.10
2023-03-15T21:37:58.395Z,20.50
2023-03-15T21:40:26.963Z,25.00
2023-03-15T21:42:55.949Z,28.60
2023-03-15T21:45:24.269Z,37.50
2023-03-15T21:47:53.833Z,33.60
2023-03-15T21:50:23.381Z,40.00
2023-03-15T21:52:51.740Z,27.60
2023-03-15T21:55:20.509Z,26.60
2023-03-15T21:57:48.791Z,27.00
2023-03-15T22:00:18.792Z,28.00
2023-03-15T22:02:47.810Z,27.00
2023-03-15T22:05:16.285Z,27.90
2023-03-15T22:07:46.712Z,30.70
2023-03-15T22:10:15.675Z,30.60
2023-03-15T22:12:44.004Z,24.70
2023-03-15T22:15:13.596Z,20.40
2023-03-15T22:17:42.485Z,18.70
2023-03-15T22:20:17.141Z,20.20
2023-03-15T22:22:47.893Z,18.90
2023-03-15T22:25:16.373Z,19.00
2023-03-15T22:27:45.761Z,19.00
2023-03-15T22:30:15.113Z,19.20
2023-03-15T22:32:44.670Z,19.10
2023-03-15T22:35:13.871Z,20.90
2023-03-15T22:37:42.788Z,18.90
2023-03-15T22:40:14.260Z,17.80
2023-03-15T22:42:43.191Z,18.80
2023-03-15T22:45:11.909Z,17.90
2023-03-15T22:47:40.589Z,17.90
2023-03-15T22:50:11.469Z,17.50
2023-03-15T22:52:41.630Z,18.60
2023-03-15T22:55:10.846Z,19.00
2023-03-15T22:57:42.897Z,19.00
2023-03-15T23:00:14.076Z,16.90
2023-03-15T23:02:45.600Z,18.70
2023-03-15T23:05:14.700Z,17.70
2023-03-15T23:07:42.767Z,18.60
2023-03-15T23:10:11.466Z,18.80
2023-03-15T23:12:41.427Z,20.40
2023-03-15T23:15:10.587Z,20.50
2023-03-15T23:17:46.224Z,18.90
2023-03-15T23:20:18.094Z,18.10
2023-03-15T23:22:52.815Z,18.70
2023-03-15T23:25:22.799Z,19.20
2023-03-15T23:27:51.334Z,19.10
2023-03-15T23:30:19.592Z,19.80
2023-03-15T23:32:49.640Z,20.40
2023-03-15T23:35:17.884Z,19.70
2023-03-15T23:37:46.173Z,17.70
2023-03-15T23:40:15.878Z,20.20
2023-03-15T23:42:45.201Z,18.60
2023-03-15T23:45:15.465Z,19.30
2023-03-15T23:47:47.281Z,19.70
2023-03-15T23:50:16.471Z,18.90
2023-03-15T23:52:44.686Z,18.80
2023-03-15T23:55:13.545Z,21.90
2023-03-15T23:57:42.010Z,21.80
